createdAt,value
2023-01-06T00:01:35.019Z,71.50
2023-01-06T00:04:03.149Z,71.60
2023-01-06T00:06:31.461Z,71.80
2023-01-06T00:09:04.572Z,71.90
2023-01-06T00:11:32.790Z,72.40
2023-01-06T00:14:00.004Z,72.10
2023-01-06T00:16:26.938Z,72.40
2023-01-06T00:18:58.868Z,72.40
2023-01-06T00:21:26.502Z,72.50
2023-01-06T00:23:53.329Z,72.50
2023-01-06T00:26:20.118Z,72.50
2023-01-06T00:28:47.068Z,72.50
2023-01-06T00:31:16.814Z,72.50
2023-01-06T00:33:44.969Z,72.40
2023-01-06T00:36:14.275Z,72.50
2023-01-06T00:38:41.617Z,72.40
2023-01-06T00:41:30.084Z,72.40
2023-01-06T00:43:58.795Z,72.30
2023-01-06T00:46:29.026Z,72.10
2023-01-06T00:49:06.694Z,72.00
2023-01-06T00:51:39.455Z,72.70
2023-01-06T00:54:13.212Z,71.90
2023-01-06T00:56:43.978Z,71.90
2023-01-06T00:59:14.840Z,71.80
2023-01-06T01:01:43.585Z,71.70
2023-01-06T01:04:11.659Z,71.70
2023-01-06T01:06:39.209Z,71.60
2023-01-06T01:09:07.002Z,71.60
2023-01-06T01:11:53.656Z,71.60
2023-01-06T01:14:21.654Z,71.50
2023-01-06T01:16:48.750Z,70.70
2023-01-06T01:19:16.450Z,71.40
2023-01-06T01:21:43.466Z,71.50
2023-01-06T01:24:10.763Z,71.40
2023-01-06T01:26:38.144Z,71.40
2023-01-06T01:29:05.678Z,70.70
2023-01-06T01:31:32.812Z,71.50
2023-01-06T01:34:01.442Z,71.60
2023-01-06T01:36:28.222Z,71.50
2023-01-06T01:38:57.839Z,70.70
2023-01-06T01:41:27.374Z,72.20
2023-01-06T01:44:20.575Z,71.50
2023-01-06T01:46:47.358Z,71.60
2023-01-06T01:49:20.698Z,71.70
2023-01-06T01:51:50.755Z,71.70
2023-01-06T01:54:30.534Z,71.60
2023-01-06T01:57:06.104Z,71.80
2023-01-06T01:59:38.632Z,71.70
2023-01-06T02:02:05.589Z,71.70
2023-01-06T02:04:38.047Z,71.60
2023-01-06T02:07:06.529Z,71.80
2023-01-06T02:09:49.287Z,71.90
2023-01-06T02:12:16.077Z,71.80
2023-01-06T02:14:43.152Z,71.90
2023-01-06T02:17:47.239Z,72.00
2023-01-06T02:20:43.991Z,72.00
2023-01-06T02:23:35.898Z,72.00
2023-01-06T02:26:39.528Z,72.00
2023-01-06T02:29:50.112Z,72.00
2023-01-06T02:32:49.659Z,72.50
2023-01-06T02:35:44.332Z,71.70
2023-01-06T02:39:03.065Z,71.80
2023-01-06T02:41:57.527Z,71.70
2023-01-06T02:44:49.075Z,71.80
2023-01-06T02:47:30.248Z,71.70
2023-01-06T02:50:12.251Z,71.60
2023-01-06T02:53:21.480Z,71.70
2023-01-06T02:55:53.405Z,71.60
2023-01-06T02:58:59.535Z,71.60
2023-01-06T03:01:37.547Z,71.70
2023-01-06T03:04:14.475Z,71.80
2023-01-06T03:06:47.110Z,71.90
2023-01-06T03:09:20.012Z,72.00
2023-01-06T03:11:51.761Z,72.00
2023-01-06T03:14:37.805Z,72.00
2023-01-06T03:17:04.872Z,71.90
2023-01-06T03:19:32.442Z,71.90
2023-01-06T03:22:02.009Z,72.00
2023-01-06T03:24:29.514Z,72.00
2023-01-06T03:26:57.029Z,71.90
2023-01-06T03:29:24.378Z,71.90
2023-01-06T03:32:18.283Z,71.80
2023-01-06T03:35:41.666Z,71.60
2023-01-06T03:38:34.750Z,71.70
2023-01-06T03:41:52.967Z,71.70
2023-01-06T03:44:43.085Z,71.80
2023-01-06T03:47:25.187Z,71.80
2023-01-06T03:50:09.724Z,71.80
2023-01-06T03:52:47.335Z,71.90
2023-01-06T03:55:23.382Z,71.30
2023-01-06T03:57:58.297Z,72.00
2023-01-06T04:00:31.848Z,72.00
2023-01-06T04:02:59.023Z,72.10
2023-01-06T04:05:28.318Z,72.10
2023-01-06T04:10:23.636Z,71.40
2023-01-06T04:12:50.950Z,72.00
2023-01-06T04:15:24.852Z,72.00
2023-01-06T04:17:51.975Z,72.10
2023-01-06T04:20:23.975Z,71.30
2023-01-06T04:22:53.847Z,72.10
2023-01-06T04:25:21.523Z,71.90
2023-01-06T04:27:48.352Z,72.00
2023-01-06T04:30:15.282Z,72.10
2023-01-06T04:32:42.324Z,72.10
2023-01-06T04:35:09.856Z,72.10
2023-01-06T04:37:37.320Z,72.20
2023-01-06T04:40:04.684Z,72.10
2023-01-06T04:42:51.987Z,72.10
2023-01-06T04:45:18.714Z,72.10
2023-01-06T04:47:45.518Z,72.10
2023-01-06T04:50:12.632Z,72.20
2023-01-06T04:52:39.358Z,72.20
2023-01-06T04:55:06.465Z,72.20
2023-01-06T04:57:33.248Z,72.30
2023-01-06T04:59:59.967Z,72.30
2023-01-06T05:02:26.686Z,72.20
2023-01-06T05:04:53.547Z,72.30
2023-01-06T05:07:20.273Z,72.30
2023-01-06T05:09:47.039Z,72.30
2023-01-06T05:12:13.819Z,72.30
2023-01-06T05:14:40.532Z,72.30
2023-01-06T05:17:07.334Z,72.40
2023-01-06T05:19:34.156Z,72.40
2023-01-06T05:22:00.934Z,72.50
2023-01-06T05:24:27.664Z,72.70
2023-01-06T05:26:55.038Z,72.80
2023-01-06T05:29:21.794Z,72.80
2023-01-06T05:31:48.549Z,72.90
2023-01-06T05:34:15.317Z,72.90
2023-01-06T05:36:42.017Z,73.00
2023-01-06T05:39:08.750Z,72.40
2023-01-06T05:41:35.490Z,73.10
2023-01-06T05:44:02.317Z,73.30
2023-01-06T05:46:29.075Z,73.20
2023-01-06T05:48:56.440Z,73.30
2023-01-06T05:51:23.173Z,73.40
2023-01-06T05:53:49.893Z,73.60
2023-01-06T05:56:20.806Z,73.60
2023-01-06T05:58:51.973Z,73.70
2023-01-06T06:01:25.235Z,73.70
2023-01-06T06:03:53.183Z,73.80
2023-01-06T06:06:22.957Z,73.80
2023-01-06T06:08:50.068Z,73.40
2023-01-06T06:11:19.221Z,74.00
2023-01-06T06:13:48.860Z,74.20
2023-01-06T06:16:18.536Z,74.30
2023-01-06T06:18:51.064Z,74.50
2023-01-06T06:21:22.260Z,74.70
2023-01-06T06:23:49.807Z,74.70
2023-01-06T06:26:16.797Z,74.80
2023-01-06T06:28:43.569Z,75.00
2023-01-06T06:31:23.438Z,75.10
2023-01-06T06:33:52.614Z,75.40
2023-01-06T06:36:19.774Z,75.50
2023-01-06T06:38:49.567Z,75.40
2023-01-06T06:41:17.361Z,75.80
2023-01-06T06:43:44.572Z,75.70
2023-01-06T06:46:12.154Z,76.00
2023-01-06T06:48:39.764Z,76.40
2023-01-06T06:51:13.520Z,76.70
2023-01-06T06:53:41.850Z,76.80
2023-01-06T06:56:10.297Z,77.00
2023-01-06T06:58:38.536Z,77.20
2023-01-06T07:01:15.117Z,77.60
2023-01-06T07:03:42.549Z,78.10
2023-01-06T07:06:13.765Z,77.90
2023-01-06T07:08:44.547Z,78.30
2023-01-06T07:11:11.584Z,78.60
2023-01-06T07:13:38.614Z,78.30
2023-01-06T07:16:06.575Z,78.50
2023-01-06T07:18:33.441Z,78.90
2023-01-06T07:21:00.182Z,78.90
2023-01-06T07:23:26.969Z,79.20
2023-01-06T07:26:00.073Z,79.70
2023-01-06T07:28:29.100Z,80.30
2023-01-06T07:30:56.088Z,80.30
2023-01-06T07:33:23.010Z,80.20
2023-01-06T07:35:57.097Z,80.40
2023-01-06T07:38:24.439Z,80.90
2023-01-06T07:40:51.928Z,80.70
2023-01-06T07:43:18.886Z,80.90
2023-01-06T07:45:49.298Z,81.10
2023-01-06T07:48:17.361Z,81.50
2023-01-06T07:53:12.392Z,80.90
2023-01-06T07:55:39.217Z,82.40
2023-01-06T07:58:10.976Z,81.60
2023-01-06T08:00:38.038Z,82.10
2023-01-06T08:03:07.406Z,81.60
2023-01-06T08:05:38.477Z,82.50
2023-01-06T08:08:05.472Z,82.30
2023-01-06T08:10:32.365Z,82.10
2023-01-06T08:12:59.167Z,82.00
2023-01-06T08:15:26.648Z,82.10
2023-01-06T08:17:54.671Z,82.20
2023-01-06T08:20:22.349Z,82.20
2023-01-06T08:22:49.229Z,82.40
2023-01-06T08:25:16.035Z,82.10
2023-01-06T08:27:42.830Z,82.50
2023-01-06T08:30:10.608Z,82.70
2023-01-06T08:32:37.311Z,82.80
2023-01-06T08:35:04.795Z,82.90
2023-01-06T08:37:31.553Z,83.10
2023-01-06T08:39:58.277Z,83.10
2023-01-06T08:42:25.023Z,83.10
2023-01-06T08:44:51.747Z,83.40
2023-01-06T08:47:18.469Z,83.10
2023-01-06T08:49:45.228Z,83.30
2023-01-06T08:52:12.015Z,83.40
2023-01-06T08:54:38.794Z,83.50
2023-01-06T08:57:05.744Z,83.70
2023-01-06T08:59:32.554Z,83.80
2023-01-06T09:01:59.391Z,84.00
2023-01-06T09:04:27.252Z,84.10
2023-01-06T09:06:54.941Z,84.10
2023-01-06T09:09:22.012Z,84.20
2023-01-06T09:11:48.790Z,84.50
2023-01-06T09:14:15.542Z,84.60
2023-01-06T09:16:42.299Z,84.50
2023-01-06T09:19:10.454Z,84.60
2023-01-06T09:21:38.070Z,84.60
2023-01-06T09:24:05.081Z,84.80
2023-01-06T09:26:31.945Z,85.00
2023-01-06T09:28:58.722Z,84.30
2023-01-06T09:31:26.704Z,84.90
2023-01-06T09:33:53.795Z,85.10
2023-01-06T09:36:20.577Z,85.20
2023-01-06T09:38:47.310Z,85.20
2023-01-06T09:42:11.957Z,85.30
2023-01-06T09:44:57.209Z,86.20
2023-01-06T09:47:36.732Z,85.90
2023-01-06T09:50:34.439Z,85.50
2023-01-06T09:53:24.156Z,85.70
2023-01-06T09:56:00.506Z,86.10
2023-01-06T09:58:42.314Z,85.60
2023-01-06T10:01:16.845Z,86.00
2023-01-06T10:03:48.084Z,85.50
2023-01-06T10:06:48.075Z,85.50
2023-01-06T10:10:07.838Z,86.30
2023-01-06T10:12:59.099Z,86.00
2023-01-06T10:15:47.370Z,86.00
2023-01-06T10:18:52.623Z,86.30
2023-01-06T10:21:36.806Z,85.90
2023-01-06T10:24:25.064Z,85.70
2023-01-06T10:26:59.317Z,85.90
2023-01-06T10:29:35.607Z,85.90
2023-01-06T10:32:05.410Z,86.10
2023-01-06T10:34:35.637Z,85.70
2023-01-06T10:37:39.271Z,86.00
2023-01-06T10:40:23.285Z,86.50
2023-01-06T10:43:03.475Z,86.40
2023-01-06T10:45:48.169Z,86.10
2023-01-06T10:48:26.004Z,86.70
2023-01-06T10:50:53.637Z,86.40
2023-01-06T10:56:00.300Z,85.40
2023-01-06T10:58:47.495Z,86.30
2023-01-06T11:01:24.395Z,86.50
2023-01-06T11:04:13.068Z,86.00
2023-01-06T11:06:45.920Z,86.70
2023-01-06T11:09:41.359Z,86.20
2023-01-06T11:12:27.473Z,86.50
2023-01-06T11:15:00.729Z,86.50
2023-01-06T11:17:29.537Z,86.10
2023-01-06T11:20:29.945Z,85.90
2023-01-06T11:23:18.968Z,86.40
2023-01-06T11:26:01.671Z,86.30
2023-01-06T11:28:28.718Z,86.20
2023-01-06T11:31:19.202Z,85.60
2023-01-06T11:33:57.458Z,85.80
2023-01-06T11:36:30.889Z,85.80
2023-01-06T11:39:01.977Z,85.80
2023-01-06T11:41:37.713Z,85.70
2023-01-06T11:44:31.697Z,86.00
2023-01-06T11:47:06.306Z,86.00
2023-01-06T11:49:43.605Z,86.00
2023-01-06T11:52:32.399Z,86.00
2023-01-06T11:55:22.048Z,86.30
2023-01-06T11:58:04.081Z,86.40
2023-01-06T12:01:01.251Z,85.00
2023-01-06T12:03:46.403Z,86.50
2023-01-06T12:06:37.268Z,86.30
2023-01-06T12:09:25.071Z,86.50
2023-01-06T12:12:03.086Z,85.70
2023-01-06T12:14:35.747Z,86.00
2023-01-06T12:17:25.371Z,86.00
2023-01-06T12:20:02.171Z,86.30
2023-01-06T12:22:44.762Z,86.10
2023-01-06T12:25:23.303Z,86.30
2023-01-06T12:28:01.735Z,86.20
2023-01-06T12:31:18.156Z,86.10
2023-01-06T12:34:21.254Z,86.20
2023-01-06T12:37:08.863Z,85.90
2023-01-06T12:40:19.260Z,86.00
2023-01-06T12:43:14.056Z,85.90
2023-01-06T12:46:05.606Z,86.10
2023-01-06T12:48:56.166Z,86.00
2023-01-06T12:51:42.365Z,85.90
2023-01-06T12:54:24.313Z,85.90
2023-01-06T12:57:01.995Z,85.70
2023-01-06T13:00:06.955Z,85.40
2023-01-06T13:03:24.629Z,85.60
2023-01-06T13:06:39.961Z,85.40
2023-01-06T13:09:38.853Z,85.30
2023-01-06T13:12:49.319Z,85.30
2023-01-06T13:15:29.667Z,85.10
2023-01-06T13:18:20.227Z,85.00
2023-01-06T13:21:05.629Z,84.90
2023-01-06T13:24:06.400Z,85.20
2023-01-06T13:27:26.175Z,85.00
2023-01-06T13:30:07.820Z,84.70
2023-01-06T13:33:18.213Z,84.60
2023-01-06T13:36:26.904Z,84.50
2023-01-06T13:39:24.023Z,84.30
2023-01-06T13:41:57.211Z,84.30
2023-01-06T13:44:29.832Z,84.00
2023-01-06T13:47:15.190Z,83.90
2023-01-06T13:49:43.082Z,83.90
2023-01-06T13:52:23.639Z,83.70
2023-01-06T13:54:51.056Z,83.70
2023-01-06T13:57:20.511Z,83.60
2023-01-06T14:00:14.356Z,83.50
2023-01-06T14:02:42.748Z,83.40
2023-01-06T14:05:44.365Z,83.30
2023-01-06T14:08:20.794Z,83.40
2023-01-06T14:10:58.523Z,83.20
2023-01-06T14:13:34.928Z,83.00
2023-01-06T14:16:13.998Z,82.90
2023-01-06T14:19:13.049Z,82.70
2023-01-06T14:21:40.651Z,82.80
2023-01-06T14:24:21.582Z,82.70
2023-01-06T14:27:04.944Z,82.70
2023-01-06T14:29:43.594Z,82.50
2023-01-06T14:32:14.330Z,82.40
2023-01-06T14:34:57.324Z,82.10
2023-01-06T14:37:47.539Z,82.20
2023-01-06T14:41:17.575Z,82.00
2023-01-06T14:43:53.840Z,82.00
2023-01-06T14:46:29.824Z,82.00
2023-01-06T14:49:02.927Z,82.10
2023-01-06T14:51:32.546Z,82.20
2023-01-06T14:54:06.559Z,82.40
2023-01-06T14:56:34.378Z,82.40
2023-01-06T14:59:10.620Z,82.40
2023-01-06T15:01:41.384Z,82.40
2023-01-06T15:04:24.494Z,82.30
2023-01-06T15:07:20.353Z,82.50
2023-01-06T15:09:49.400Z,82.50
2023-01-06T15:12:32.089Z,82.30
2023-01-06T15:15:27.559Z,82.50
2023-01-06T15:17:56.652Z,82.60
2023-01-06T15:20:36.010Z,82.30
2023-01-06T15:23:03.173Z,82.60
2023-01-06T15:25:31.912Z,82.40
2023-01-06T15:27:59.637Z,82.50
2023-01-06T15:30:30.783Z,82.50
2023-01-06T15:32:58.032Z,82.70
2023-01-06T15:35:30.745Z,82.60
2023-01-06T15:38:33.932Z,82.80
2023-01-06T15:41:02.431Z,83.20
2023-01-06T15:43:40.690Z,82.70
2023-01-06T15:46:13.208Z,82.80
2023-01-06T15:48:48.941Z,83.00
2023-01-06T15:51:19.597Z,83.10
2023-01-06T15:53:53.962Z,83.10
2023-01-06T15:56:28.177Z,83.40
2023-01-06T15:58:58.748Z,83.60
2023-01-06T16:01:25.899Z,83.60
2023-01-06T16:04:00.037Z,83.60
2023-01-06T16:06:40.723Z,83.70
2023-01-06T16:09:25.948Z,83.80
2023-01-06T16:12:17.815Z,84.00
2023-01-06T16:14:49.138Z,84.00
2023-01-06T16:17:33.147Z,83.70
2023-01-06T16:20:05.135Z,83.60
2023-01-06T16:22:53.594Z,83.80
2023-01-06T16:25:34.208Z,84.00
2023-01-06T16:28:04.884Z,83.90
2023-01-06T16:30:37.602Z,83.70
2023-01-06T16:33:05.028Z,83.80
2023-01-06T16:35:34.448Z,83.70
2023-01-06T16:38:01.712Z,83.80
2023-01-06T16:40:29.314Z,83.80
2023-01-06T16:43:02.088Z,83.80
2023-01-06T16:45:34.259Z,83.90
2023-01-06T16:48:01.356Z,83.70
2023-01-06T16:50:31.079Z,83.70
2023-01-06T16:53:15.501Z,84.00
2023-01-06T16:55:43.305Z,83.90
2023-01-06T16:58:30.511Z,83.80
2023-01-06T17:01:08.867Z,83.90
2023-01-06T17:03:37.467Z,83.90
2023-01-06T17:06:12.367Z,83.90
2023-01-06T17:08:40.073Z,83.90
2023-01-06T17:11:30.821Z,83.90
2023-01-06T17:14:04.316Z,84.10
2023-01-06T17:16:35.995Z,84.00
2023-01-06T17:19:14.331Z,84.10
2023-01-06T17:21:41.465Z,84.10
2023-01-06T17:24:25.125Z,83.90
2023-01-06T17:26:57.781Z,84.00
2023-01-06T17:29:32.877Z,83.80
2023-01-06T17:32:03.465Z,83.70
2023-01-06T17:34:33.671Z,83.50
2023-01-06T17:37:11.919Z,83.50
2023-01-06T17:39:43.223Z,83.40
2023-01-06T17:42:12.694Z,83.20
2023-01-06T17:45:00.543Z,83.10
2023-01-06T17:47:46.214Z,83.00
2023-01-06T17:50:29.947Z,83.00
2023-01-06T17:53:38.007Z,82.90
2023-01-06T17:56:10.988Z,82.80
2023-01-06T17:58:42.297Z,82.70
2023-01-06T18:01:23.716Z,82.10
2023-01-06T18:03:52.818Z,82.80
2023-01-06T18:06:25.925Z,82.70
2023-01-06T18:09:02.423Z,82.70
2023-01-06T18:11:35.525Z,82.70
2023-01-06T18:14:33.265Z,82.80
2023-01-06T18:17:21.936Z,82.90
2023-01-06T18:19:48.814Z,82.90
2023-01-06T18:22:19.906Z,82.90
2023-01-06T18:24:50.065Z,82.80
2023-01-06T18:27:23.674Z,82.80
2023-01-06T18:29:51.932Z,83.50
2023-01-06T18:32:21.590Z,82.90
2023-01-06T18:34:57.965Z,82.90
2023-01-06T18:37:29.166Z,82.90
2023-01-06T18:40:07.733Z,82.90
2023-01-06T18:42:48.992Z,82.90
2023-01-06T18:45:27.786Z,83.00
2023-01-06T18:48:25.100Z,83.00
2023-01-06T18:50:53.706Z,83.00
2023-01-06T18:53:41.210Z,82.90
2023-01-06T18:56:33.511Z,83.00
2023-01-06T18:59:00.230Z,83.00
2023-01-06T19:01:45.785Z,82.90
2023-01-06T19:04:19.457Z,83.20
2023-01-06T19:06:49.169Z,83.10
2023-01-06T19:09:47.645Z,83.00
2023-01-06T19:12:41.219Z,83.10
2023-01-06T19:15:26.047Z,83.40
2023-01-06T19:17:54.014Z,83.30
2023-01-06T19:20:29.087Z,83.10
2023-01-06T19:22:57.026Z,83.10
2023-01-06T19:25:33.761Z,83.20
2023-01-06T19:28:10.905Z,83.50
2023-01-06T19:30:56.301Z,84.10
2023-01-06T19:33:35.255Z,83.50
2023-01-06T19:36:04.840Z,83.40
2023-01-06T19:38:39.505Z,84.10
2023-01-06T19:41:31.754Z,83.50
2023-01-06T19:44:12.737Z,83.50
2023-01-06T19:46:48.259Z,83.50
2023-01-06T19:49:23.010Z,83.60
2023-01-06T19:51:54.839Z,83.60
2023-01-06T19:54:29.366Z,83.60
2023-01-06T19:56:57.763Z,83.70
2023-01-06T19:59:31.451Z,83.50
2023-01-06T20:02:10.218Z,83.60
2023-01-06T20:04:37.150Z,83.80
2023-01-06T20:07:04.393Z,83.60
2023-01-06T20:09:33.670Z,83.60
2023-01-06T20:12:00.842Z,83.80
2023-01-06T20:14:27.611Z,83.80
2023-01-06T20:16:54.713Z,83.80
2023-01-06T20:19:21.718Z,83.80
2023-01-06T20:21:48.767Z,83.80
2023-01-06T20:24:15.831Z,83.70
2023-01-06T20:26:42.973Z,83.80
2023-01-06T20:29:10.172Z,83.80
2023-01-06T20:31:37.059Z,83.90
2023-01-06T20:34:04.118Z,83.90
2023-01-06T20:36:31.021Z,83.80
2023-01-06T20:38:57.775Z,83.80
2023-01-06T20:41:26.011Z,83.90
2023-01-06T20:43:52.786Z,84.00
2023-01-06T20:46:19.641Z,84.00
2023-01-06T20:48:47.781Z,84.00
2023-01-06T20:51:14.764Z,84.00
2023-01-06T20:53:41.520Z,84.10
2023-01-06T20:56:08.259Z,84.20
2023-01-06T20:58:35.577Z,84.20
2023-01-06T21:01:02.361Z,84.30
2023-01-06T21:03:29.167Z,84.30
2023-01-06T21:05:55.942Z,84.30
2023-01-06T21:08:22.755Z,84.40
2023-01-06T21:10:49.525Z,84.50
2023-01-06T21:13:16.313Z,84.50
2023-01-06T21:15:43.037Z,84.60
2023-01-06T21:18:09.812Z,84.60
2023-01-06T21:20:36.548Z,84.60
2023-01-06T21:23:03.292Z,84.70
2023-01-06T21:25:30.959Z,84.70
2023-01-06T21:27:58.778Z,84.70
2023-01-06T21:30:27.812Z,84.80
2023-01-06T21:32:54.834Z,85.00
2023-01-06T21:35:21.573Z,85.00
2023-01-06T21:37:48.294Z,85.00
2023-01-06T21:40:15.129Z,85.00
2023-01-06T21:43:00.487Z,85.10
2023-01-06T21:45:28.283Z,85.10
2023-01-06T21:47:55.423Z,85.20
2023-01-06T21:50:25.430Z,84.60
2023-01-06T21:52:53.976Z,85.10
2023-01-06T21:55:21.025Z,85.10
2023-01-06T21:57:48.673Z,85.10
2023-01-06T22:00:15.987Z,85.10
2023-01-06T22:02:45.286Z,85.10
2023-01-06T22:05:12.770Z,85.10
2023-01-06T22:07:48.029Z,85.10
2023-01-06T22:10:18.438Z,84.50
2023-01-06T22:12:48.992Z,85.10
2023-01-06T22:15:16.181Z,85.10
2023-01-06T22:17:43.113Z,85.00
2023-01-06T22:20:11.904Z,84.30
2023-01-06T22:22:39.940Z,85.00
2023-01-06T22:25:07.683Z,84.20
2023-01-06T22:27:34.674Z,84.90
2023-01-06T22:30:01.424Z,84.80
2023-01-06T22:32:28.421Z,84.80
2023-01-06T22:34:55.175Z,84.80
2023-01-06T22:37:22.093Z,84.80
2023-01-06T22:39:49.516Z,84.80
2023-01-06T22:42:16.570Z,84.90
2023-01-06T22:44:43.393Z,84.90
2023-01-06T22:47:10.132Z,84.90
2023-01-06T22:49:37.559Z,84.90
2023-01-06T22:52:05.329Z,85.00
2023-01-06T22:54:32.067Z,85.10
2023-01-06T22:56:58.834Z,85.10
2023-01-06T22:59:26.115Z,85.30
2023-01-06T23:01:53.032Z,85.30
2023-01-06T23:04:19.871Z,85.30
2023-01-06T23:06:46.637Z,85.40
2023-01-06T23:09:13.582Z,85.50
2023-01-06T23:11:41.724Z,85.50
2023-01-06T23:14:11.322Z,85.40
2023-01-06T23:16:41.547Z,85.40
2023-01-06T23:19:13.642Z,85.40
2023-01-06T23:21:42.423Z,85.30
2023-01-06T23:24:10.316Z,85.30
2023-01-06T23:26:43.821Z,85.10
2023-01-06T23:29:12.273Z,85.30
2023-01-06T23:31:44.098Z,85.10
2023-01-06T23:34:14.634Z,85.10
2023-01-06T23:36:41.974Z,84.60
2023-01-06T23:39:13.447Z,85.00
2023-01-06T23:41:40.861Z,85.00
2023-01-06T23:44:11.381Z,84.90
2023-01-06T23:46:39.966Z,84.80
2023-01-06T23:49:08.318Z,84.80
2023-01-06T23:51:35.110Z,84.90
2023-01-06T23:54:04.546Z,84.80
2023-01-06T23:56:34.702Z,84.80
2023-01-06T23:59:03.650Z,84.90
